Latest Weather Observations for Kingscote

IDS60801

Issued at 2:31 am CST Friday 30 September 2016 (issued every 30 minutes, with the page automatically refreshed every 10 minutes)

About weather observations | Map of weather stations | Latest weather observations for SA | Other Formats
Station Details ID: 022841 Name: KINGSCOTE AERO Lat: -35.71 Lon: 137.52 Height: 6.23 m
Data from the previous 72 hours. | See also: Recent months at Kingscote
Date/Time
CST
Temp
°C
App
Temp
°C
Dew
Point
°C
Rel
Hum
%
Delta-T
°C
Wind Press
QNH
hPa
Press
MSL
hPa
Rain since
9am
mm
Dir  Spd
km/h
Gust
km/h
Spd
kts
Gust
kts
30/02:30am 10.3 5.8 8.6 89 0.8 SW 22 32 12 17 998.0 998.0 9.8
30/02:00am 10.1 6.6 8.9 92 0.6 SW 17 24 9 13 997.9 997.9 9.4
30/01:30am 10.3 5.9 8.9 91 0.7 SW 22 33 12 18 997.5 997.5 9.4
30/01:00am 9.8 5.9 8.6 92 0.6 SW 19 24 10 13 997.2 997.2 9.4
30/12:31am 9.7 5.2 8.6 93 0.5 SSW 22 32 12 17 996.8 996.8 9.4
30/12:30am 9.6 5.1 8.5 93 0.5 SSW 22 33 12 18 996.8 996.8 9.4
30/12:13am 10.0 3.5 8.9 93 0.5 SSW 33 54 18 29 996.8 996.8 8.8
30/12:10am 10.2 4.6 8.8 91 0.7 SSW 28 41 15 22 996.7 996.7 8.0
30/12:00am 10.1 6.7 9.2 94 0.4 SW 17 20 9 11 996.5 996.5 7.6
 
Date/Time
CST
Temp
°C
App
Temp
°C
Dew
Point
°C
Rel
Hum
%
Delta-T
°C
Wind Press
QNH
hPa
Press
MSL
hPa
Rain since
9am
mm
Dir  Spd
km/h
Gust
km/h
Spd
kts
Gust
kts
29/11:30pm 9.8 4.5 8.4 91 0.7 S 26 35 14 19 996.1 996.1 7.4
29/11:00pm 10.3 5.2 9.1 92 0.6 SSW 26 33 14 18 995.3 995.3 6.6
29/10:31pm 10.8 4.0 9.4 91 0.7 SSW 35 56 19 30 994.3 994.3 6.6
29/10:30pm 10.8 4.0 9.4 91 0.7 SSW 35 56 19 30 994.3 994.3 6.6
29/10:29pm 10.9 3.8 9.5 91 0.7 SSW 37 59 20 32 994.3 994.3 6.6
29/10:26pm 11.0 3.2 9.6 91 0.7 SW 41 59 22 32 994.2 994.2 6.6
29/10:00pm 10.8 2.4 9.7 93 0.6 WSW 44 65 24 35 993.2 993.2 5.8
29/09:51pm 10.6 2.7 9.5 93 0.6 WSW 41 61 22 33 993.2 993.2 5.6
29/09:30pm 10.5 1.6 9.3 92 0.6 WSW 46 70 25 38 993.4 993.4 5.2
29/09:16pm 10.4 2.0 9.0 91 0.7 WSW 43 63 23 34 993.3 993.3 5.0
29/09:01pm 10.5 2.5 9.1 91 0.7 WSW 41 59 22 32 993.3 993.3 4.8
29/09:00pm 10.5 2.1 9.1 91 0.7 WSW 43 59 23 32 993.2 993.2 4.8
29/08:37pm 10.5 2.1 8.9 90 0.8 WSW 43 65 23 35 993.3 993.3 4.2
29/08:30pm 10.5 2.1 8.9 90 0.8 WSW 43 57 23 31 993.2 993.2 4.2
29/08:22pm 10.6 1.6 8.9 89 0.8 WSW 46 65 25 35 993.1 993.1 4.0
29/08:12pm 10.5 1.9 8.9 90 0.8 WSW 44 67 24 36 993.0 993.0 4.0
29/08:08pm 10.6 2.0 9.0 90 0.8 WSW 44 59 24 32 993.0 993.0 4.0
29/08:00pm 10.6 2.2 9.0 90 0.8 WSW 43 57 23 31 992.9 992.9 3.6
29/07:30pm 10.6 2.2 9.0 90 0.8 WSW 43 65 23 35 992.5 992.5 3.4
29/07:01pm 10.6 2.0 9.0 90 0.8 WSW 44 65 24 35 992.0 992.0 3.2
29/07:00pm 10.6 2.1 9.2 91 0.7 WSW 44 57 24 31 992.0 992.0 3.0
29/06:30pm 10.7 1.4 9.1 90 0.8 WSW 48 70 26 38 991.4 991.4 2.6
29/06:00pm 11.0 1.4 9.3 89 0.9 WSW 50 72 27 39 990.9 990.9 2.4
29/05:36pm 11.3 1.7 9.4 88 1.0 WSW 50 74 27 40 990.4 990.4 2.4
29/05:30pm 11.3 2.1 9.6 89 0.9 WSW 48 63 26 34 990.4 990.4 2.4
29/05:08pm 11.3 2.5 9.6 89 0.9 WSW 46 70 25 38 989.9 989.9 2.4
29/05:00pm 11.3 2.1 9.6 89 0.9 WSW 48 67 26 36 989.7 989.7 2.4
29/04:47pm 11.3 2.5 9.7 90 0.8 WSW 46 67 25 36 989.4 989.4 2.2
29/04:43pm 11.4 2.3 9.7 89 0.9 WSW 48 67 26 36 989.3 989.3 2.0
29/04:30pm 11.7 2.6 9.8 88 1.0 WSW 48 65 26 35 989.1 989.1 2.0
29/04:00pm 12.1 1.8 9.7 85 1.2 SW 54 76 29 41 988.2 988.2 1.8
29/03:30pm 11.7 2.3 10.1 90 0.8 WSW 50 83 27 45 987.4 987.4 1.8
29/03:28pm 11.7 2.6 9.9 89 0.9 SW 48 83 26 45 987.4 987.4 1.8
29/03:26pm 11.7 3.0 9.9 89 0.9 SW 46 83 25 45 987.2 987.2 1.6
29/03:24pm 12.0 4.0 10.4 90 0.8 SW 43 61 23 33 987.4 987.4 1.6
29/03:23pm 12.0 3.9 10.2 89 0.9 SW 43 61 23 33 987.3 987.3 1.6
29/03:15pm 11.8 3.8 10.4 91 0.7 SW 43 59 23 32 987.2 987.2 1.6
29/03:00pm 11.7 6.2 10.4 92 0.7 SW 30 54 16 29 987.1 987.1 1.4
29/02:59pm 11.8 6.7 10.5 92 0.7 SW 28 48 15 26 987.1 987.1 1.2
29/02:57pm 11.9 6.8 10.6 92 0.7 WSW 28 41 15 22 987.0 987.0 0.8
29/02:30pm 13.6 7.4 10.0 79 1.9 SW 33 44 18 24 986.5 986.5 0.0
29/02:00pm 13.5 9.9 10.5 82 1.6 WSW 20 30 11 16 985.7 985.7 0.0
29/01:30pm 13.6 10.0 10.4 81 1.7 W 20 26 11 14 985.2 985.2 0.0
29/01:00pm 14.1 9.6 8.5 69 2.8 WNW 22 30 12 16 984.8 984.8 0.0
29/12:30pm 15.6 11.6 9.1 65 3.4 WSW 20 32 11 17 984.8 984.8 0.0
29/12:00pm 15.2 10.2 6.5 56 4.3 WSW 22 30 12 16 984.7 984.7 0.0
29/11:30am 16.5 9.8 8.0 57 4.4 WSW 33 43 18 23 984.8 984.8 0.0
29/11:00am 15.4 8.1 5.3 51 4.8 WSW 33 44 18 24 984.6 984.6 0.0
29/10:30am 14.1 8.9 8.9 71 2.7 SW 26 35 14 19 984.3 984.3 0.0
29/10:22am 12.5 6.2 9.1 80 1.7 SW 32 50 17 27 984.5 984.5 0.0
29/10:00am 14.6 7.1 8.1 65 3.2 SW 37 50 20 27 984.2 984.2 0.0
29/09:30am 13.0 6.8 9.3 78 1.9 SW 32 44 17 24 984.0 984.0 0.0
29/09:07am 12.7 4.2 8.4 75 2.1 SW 43 61 23 33 983.3 983.3 0.0
29/09:00am 12.0 2.7 7.5 74 2.2 SW 46 61 25 33 983.0 983.0 7.6
29/08:30am 11.4 3.8 9.1 86 1.2 SW 39 57 21 31 982.2 982.2 7.6
29/08:15am 11.8 4.5 8.8 82 1.5 SW 37 56 20 30 981.6 981.6 7.6
29/08:00am 12.1 6.3 9.3 83 1.4 SW 30 46 16 25 981.0 981.0 7.4
29/07:30am 10.4 4.3 8.3 87 1.0 SW 30 37 16 20 979.9 979.9 7.4
29/07:00am 9.4 4.5 8.5 94 0.4 SW 24 32 13 17 978.9 978.9 7.4
29/06:30am 9.2 5.2 8.4 95 0.4 SSW 19 24 10 13 977.8 977.8 7.4
29/06:00am 9.4 6.2 8.6 95 0.4 SSW 15 20 8 11 976.7 976.7 7.4
29/05:30am 10.0 8.5 8.3 89 0.8 N 6 11 3 6 975.9 975.9 7.2
29/05:00am 10.1 6.8 8.2 88 0.9 N 15 22 8 12 975.8 975.8 7.2
29/04:30am 9.8 5.1 7.7 87 1.0 N 22 35 12 19 976.1 976.1 7.2
29/04:00am 9.5 4.1 8.1 91 0.7 N 26 39 14 21 976.6 976.6 7.2
29/03:36am 9.6 3.9 8.4 92 0.6 N 28 46 15 25 977.3 977.3 6.6
29/03:30am 9.5 3.8 8.3 92 0.6 N 28 43 15 23 977.5 977.5 6.4
29/03:00am 9.2 2.5 8.0 92 0.6 N 33 50 18 27 978.6 978.6 5.8
29/02:30am 9.1 2.3 7.7 91 0.7 N 33 54 18 29 979.8 979.8 5.0
29/02:17am 8.7 1.8 7.3 91 0.7 N 33 56 18 30 980.5 980.5 5.0
29/02:04am 8.5 1.5 7.0 90 0.7 N 33 57 18 31 981.3 981.3 4.8
29/02:01am 8.5 1.5 7.0 90 0.7 N 33 54 18 29 981.5 981.5 4.8
29/02:00am 8.5 1.5 7.0 90 0.7 N 33 48 18 26 981.6 981.6 4.8
29/01:30am 9.6 1.3 6.3 80 1.6 N 39 63 21 34 982.5 982.5 3.4
29/01:24am 9.7 2.2 6.2 79 1.6 N 35 57 19 31 982.8 982.8 3.4
29/01:00am 9.6 3.0 6.1 79 1.6 N 30 46 16 25 983.8 983.8 3.4
29/12:30am 10.3 2.3 5.9 74 2.1 NNW 37 59 20 32 985.0 985.0 3.4
29/12:00am 10.7 3.8 6.3 74 2.1 NNW 32 56 17 30 985.7 985.7 3.4
 
Date/Time
CST
Temp
°C
App
Temp
°C
Dew
Point
°C
Rel
Hum
%
Delta-T
°C
Wind Press
QNH
hPa
Press
MSL
hPa
Rain since
9am
mm
Dir  Spd
km/h
Gust
km/h
Spd
kts
Gust
kts
28/11:30pm 11.0 3.2 4.9 66 2.8 NNW 35 59 19 32 986.6 986.6 3.4
28/11:03pm 10.8 4.0 5.1 68 2.6 NW 30 48 16 26 987.3 987.3 3.4
28/11:00pm 10.8 3.7 5.3 69 2.5 NW 32 48 17 26 987.4 987.4 3.4
28/10:50pm 10.8 4.4 5.1 68 2.6 NW 28 50 15 27 987.6 987.6 3.4
28/10:30pm 10.6 4.3 5.6 71 2.3 NW 28 43 15 23 988.2 988.2 3.4
28/10:00pm 10.4 2.8 6.0 74 2.0 NW 35 61 19 33 988.8 988.8 3.4
28/09:42pm 10.7 4.4 5.7 71 2.3 NW 28 50 15 27 989.4 989.4 3.4
28/09:30pm 11.0 6.3 6.2 72 2.3 NNW 20 30 11 16 989.0 989.0 3.4
28/09:00pm 11.1 5.0 6.5 73 2.2 WNW 28 41 15 22 989.4 989.4 3.4
28/08:30pm 10.7 5.8 6.8 77 1.9 WNW 22 33 12 18 989.7 989.7 3.4
28/08:00pm 10.6 6.1 7.1 79 1.7 WNW 20 30 11 16 989.6 989.6 3.4
28/07:30pm 10.8 6.2 8.0 83 1.4 WNW 22 37 12 20 989.5 989.5 3.4
28/07:00pm 10.8 6.3 8.6 86 1.1 WNW 22 32 12 17 989.0 989.0 3.4
28/06:30pm 11.1 6.7 9.0 87 1.1 NW 22 33 12 18 989.2 989.2 3.4
28/06:00pm 11.0 5.8 8.8 86 1.1 WNW 26 33 14 18 989.1 989.1 3.2
28/05:30pm 11.3 5.7 8.7 84 1.3 W 28 35 15 19 989.1 989.1 3.0
28/05:00pm 11.3 2.8 9.2 87 1.0 W 44 67 24 36 989.4 989.4 3.0
28/04:40pm 13.2 7.3 10.6 84 1.4 NNW 32 65 17 35 988.7 988.7 2.8
28/04:38pm 13.7 8.9 11.8 88 1.0 NNW 28 50 15 27 988.6 988.6 2.8
28/04:30pm 13.8 9.9 12.2 90 0.9 N 24 32 13 17 988.1 988.1 2.8
28/04:09pm 13.5 9.7 12.4 93 0.6 N 24 37 13 20 988.2 988.2 2.6
28/04:00pm 13.0 8.7 11.9 93 0.6 N 26 35 14 19 988.8 988.8 2.6
28/03:56pm 13.0 7.8 11.7 92 0.7 NNE 30 48 16 26 988.6 988.6 2.6
28/03:47pm 13.1 7.4 11.3 89 1.0 NNE 32 48 17 26 988.1 988.1 1.8
28/03:43pm 13.4 8.6 11.5 88 1.0 NNE 28 46 15 25 988.1 988.1 1.4
28/03:30pm 14.1 8.4 11.3 83 1.5 NNE 32 46 17 25 987.6 987.6 0.8
28/03:07pm 13.7 7.8 11.2 85 1.3 NNE 33 52 18 28 987.9 987.9 0.8
28/03:00pm 13.7 7.9 11.4 86 1.2 NNE 33 50 18 27 988.8 988.8 0.8
28/02:31pm 12.9 6.3 11.3 90 0.8 NE 37 59 20 32 989.6 989.6 0.8
28/02:30pm 12.9 5.9 11.3 90 0.9 NE 39 63 21 34 989.6 989.6 0.8
28/02:00pm 13.0 6.1 11.6 91 0.7 NNE 39 61 21 33 990.8 990.8 0.8
28/01:57pm 13.1 5.8 11.7 91 0.7 NNE 41 61 22 33 990.9 990.9 0.8
28/01:38pm 13.1 5.3 11.7 91 0.7 NNE 44 65 24 35 991.9 991.9 0.6
28/01:30pm 13.1 4.7 11.0 87 1.1 NNE 46 70 25 38 992.9 992.9 0.0
28/01:10pm 13.6 5.6 10.6 82 1.6 NNE 43 65 23 35 993.2 993.2 0.0
28/01:00pm 14.3 4.7 10.7 79 1.9 NE 52 70 28 38 993.3 993.3 0.0
28/12:30pm 15.9 6.8 11.3 74 2.5 NNE 50 76 27 41 993.7 993.7 0.0
28/12:00pm 15.4 6.8 8.9 65 3.3 NNE 44 67 24 36 993.7 993.7 0.0
28/11:57am 15.5 6.5 9.0 65 3.3 NNE 46 70 25 38 994.1 994.1 0.0
28/11:30am 15.6 7.9 8.8 64 3.5 NNE 39 61 21 33 996.1 996.1 0.0
28/11:18am 15.5 9.2 9.0 65 3.3 NNE 32 50 17 27 996.2 996.2 0.0
28/11:00am 15.8 9.9 9.2 65 3.4 NE 30 46 16 25 996.6 996.6 0.0
28/10:30am 15.9 8.2 8.6 62 3.7 NE 39 57 21 31 997.3 997.3 0.0
28/10:00am 16.7 9.4 8.9 60 4.0 NNE 37 57 20 31 998.4 998.4 0.0
28/09:30am 16.2 9.2 9.8 66 3.4 NNE 37 59 20 32 999.9 999.9 0.0
28/09:07am 15.7 9.6 9.6 67 3.2 NNE 32 56 17 30 1000.6 1000.6 0.0
28/09:00am 15.5 9.6 10.3 71 2.7 NNE 32 48 17 26 1000.9 1000.9 0.0
28/08:37am 14.9 8.6 9.7 71 2.7 NNE 33 52 18 28 1001.9 1001.9 0.0
28/08:30am 14.7 8.6 9.7 72 2.6 NNE 32 46 17 25 1002.0 1002.0 0.0
28/08:02am 13.9 8.5 9.5 75 2.3 NNE 28 46 15 25 1002.8 1002.8 0.0
28/08:00am 14.0 9.1 10.0 77 2.1 NNE 26 37 14 20 1002.9 1002.9 0.0
28/07:30am 13.3 9.1 9.7 79 1.9 NNE 22 35 12 19 1003.6 1003.6 0.0
28/07:00am 12.1 8.5 9.8 86 1.2 ENE 19 24 10 13 1004.1 1004.1 0.0
28/06:30am 10.9 7.9 9.3 90 0.8 ENE 15 19 8 10 1005.3 1005.3 0.0
28/06:00am 10.7 7.3 9.1 90 0.8 NE 17 20 9 11 1005.7 1005.7 0.0
28/05:30am 10.1 7.3 8.7 91 0.7 NE 13 17 7 9 1006.2 1006.2 0.0
28/05:00am 10.2 7.7 9.6 96 0.3 NE 13 15 7 8 1006.5 1006.5 0.0
28/04:30am 6.1 3.9 5.1 93 0.4 N 6 9 3 5 1007.0 1007.0 0.0
28/04:00am 9.8 8.2 8.7 93 0.5 NNE 7 9 4 5 1007.3 1007.3 0.0
28/03:30am 10.3 8.1 9.2 93 0.5 NNE 11 15 6 8 1007.8 1007.8 0.0
28/03:00am 9.2 7.3 8.9 98 0.1 NNE 9 13 5 7 1008.4 1008.4 0.0
28/02:30am 6.0 4.9 5.1 94 0.4 CALM 0 0 0 0 1008.8 1008.8 0.0
28/02:00am 6.3 5.2 5.3 93 0.4 CALM 0 0 0 0 1009.5 1009.5 0.0
28/01:30am 8.8 7.0 8.0 95 0.4 N 7 9 4 5 1009.9 1009.9 0.0
28/01:00am 8.5 6.3 7.9 96 0.3 N 9 11 5 6 1010.3 1010.3 0.0
28/12:30am 7.2 6.4 6.5 95 0.3 CALM 0 0 0 0 1010.9 1010.9 0.0
28/12:00am 7.9 7.2 7.0 94 0.4 CALM 0 0 0 0 1011.1 1011.1 0.0
 
Date/Time
CST
Temp
°C
App
Temp
°C
Dew
Point
°C
Rel
Hum
%
Delta-T
°C
Wind Press
QNH
hPa
Press
MSL
hPa
Rain since
9am
mm
Dir  Spd
km/h
Gust
km/h
Spd
kts
Gust
kts
27/11:30pm 8.5 7.9 7.3 92 0.6 CALM 0 0 0 0 1011.5 1011.5 0.0
27/11:00pm 10.0 8.4 8.6 91 0.7 N 7 9 4 5 1011.5 1011.5 0.0
27/10:30pm 9.6 7.4 8.0 90 0.8 N 9 11 5 6 1011.9 1011.9 0.0
27/10:00pm 10.2 8.5 8.5 89 0.8 N 7 9 4 5 1012.2 1012.2 0.0
27/09:30pm 10.1 8.1 8.5 90 0.8 N 9 9 5 5 1012.6 1012.6 0.0
27/09:00pm 9.4 7.2 7.8 90 0.8 NNW 9 11 5 6 1012.8 1012.8 0.0
27/08:30pm 10.7 9.2 8.6 87 1.0 NW 6 6 3 3 1013.0 1013.0 0.0
27/08:00pm 11.5 10.2 9.1 85 1.2 NNW 6 7 3 4 1013.1 1013.1 0.0
27/07:30pm 12.7 11.2 9.3 80 1.7 NNW 7 9 4 5 1013.1 1013.1 0.0
27/07:00pm 13.3 11.6 9.7 79 1.8 NNW 9 15 5 8 1013.1 1013.1 0.0
27/06:30pm 13.5 11.4 9.7 78 1.9 NW 11 15 6 8 1013.1 1013.1 0.0
27/06:00pm 13.7 10.4 9.6 76 2.1 NW 17 20 9 11 1013.0 1013.0 0.0
27/05:30pm 14.0 10.2 9.2 73 2.4 NW 19 26 10 14 1012.9 1012.9 0.0
27/05:00pm 14.3 10.4 9.3 72 2.6 NW 20 26 11 14 1012.8 1012.8 0.0
27/04:30pm 15.0 10.6 9.1 68 3.0 NW 22 30 12 16 1012.7 1012.7 0.0
27/04:00pm 15.0 11.0 9.1 68 3.0 NW 20 28 11 15 1012.8 1012.8 0.0
27/03:30pm 15.5 11.5 9.0 65 3.3 NW 20 28 11 15 1013.0 1013.0 0.0
27/03:00pm 15.4 10.1 8.6 64 3.5 WNW 26 37 14 20 1013.3 1013.3 0.0
27/02:30pm 15.5 10.5 8.0 61 3.8 WNW 24 33 13 18 1013.2 1013.2 0.0
27/02:00pm 15.2 9.8 8.2 63 3.5 NW 26 35 14 19 1013.6 1013.6 0.0
27/01:30pm 15.2 9.0 7.7 61 3.7 WNW 30 41 16 22 1013.8 1013.8 0.0
27/01:00pm 15.4 9.7 8.4 63 3.5 WNW 28 39 15 21 1014.0 1014.0 0.0
27/12:30pm 15.6 9.5 8.1 61 3.8 WNW 30 37 16 20 1014.2 1014.2 0.0
27/12:00pm 16.4 10.6 8.1 58 4.2 WNW 28 39 15 21 1014.5 1014.5 0.0
27/11:30am 15.9 10.4 7.7 58 4.1 WNW 26 37 14 20 1014.7 1014.7 0.0
27/11:00am 15.8 9.2 6.0 52 4.7 WNW 30 41 16 22 1014.7 1014.7 0.0
27/10:30am 14.9 9.2 6.5 57 4.1 WNW 26 35 14 19 1014.9 1014.9 0.0
27/10:00am 15.3 9.7 7.1 58 4.0 WNW 26 39 14 21 1015.2 1015.2 0.0
27/09:30am 15.2 9.9 7.0 58 4.0 WNW 24 35 13 19 1015.2 1015.2 0.0
27/09:00am 14.1 9.4 7.6 65 3.2 WNW 22 33 12 18 1015.2 1015.2 0.0
27/08:30am 11.9 11.7 8.9 82 1.5 CALM 0 2 0 1 1015.2 1015.2 0.0
27/08:00am 9.6 9.1 8.0 90 0.8 CALM 0 0 0 0 1015.1 1015.1 0.0
27/07:30am 7.7 7.0 7.0 95 0.3 CALM 0 0 0 0 1015.0 1015.0 0.0
27/07:00am 6.5 5.6 6.1 97 0.2 CALM 0 0 0 0 1014.8 1014.8 0.0
27/06:30am 4.0 2.6 3.3 95 0.3 CALM 0 0 0 0 1014.4 1014.4 0.0
27/06:00am 3.9 2.4 3.2 95 0.3 CALM 0 0 0 0 1014.1 1014.1 0.0
27/05:30am 4.3 2.9 3.6 95 0.3 CALM 0 0 0 0 1014.0 1014.0 0.0
27/05:00am 5.0 3.4 4.4 96 0.3 NW 2 6 1 3 1013.8 1013.8 0.0
27/04:30am 3.8 2.3 3.1 95 0.3 CALM 0 0 0 0 1013.6 1013.6 0.0
27/04:00am 4.0 2.5 3.1 94 0.4 CALM 0 0 0 0 1013.5 1013.5 0.0
27/03:30am 4.0 2.5 3.1 94 0.4 CALM 0 0 0 0 1013.5 1013.5 0.0
27/03:00am 4.7 3.3 3.7 93 0.4 CALM 0 0 0 0 1013.5 1013.5 0.0

Other Formats:

Comma delimited format used in spreadsheet applications
http://www.bom.gov.au/fwo/IDS60801/IDS60801.95807.axf

JavaScript Object Notation format (JSON) in row-major order
http://www.bom.gov.au/fwo/IDS60801/IDS60801.95807.json